NCAR-RAP Real-Time Weather Data

Output produced by METARs form (12 August 2020  18:31 UTC)
found at http://weather.rap.ucar.edu/surface/
 
KBUF 121754Z VRB03KT 10SM FEW180 BKN230 28/10 A3011 RMK AO2 SLP191 T02830100 10289 20189 57007
KBUF 121654Z VRB03KT 10SM FEW180 BKN230 27/11 A3012 RMK AO2 SLP194 T02670106
KBUF 121554Z 27005KT 10SM FEW180 BKN240 26/11 A3012 RMK AO2 SLP196 T02610111
KBUF 121454Z 00000KT 10SM BKN240 25/11 A3013 RMK AO2 SLP199 T02500111 51008
KBUF 121354Z 19004KT 10SM BKN250 23/14 A3013 RMK AO2 SLP198 T02280139
KBUF 121254Z 18004KT 10SM BKN250 21/15 A3012 RMK AO2 SLP196 T02060150
KBUF 121154Z 00000KT 10SM BKN250 19/15 A3010 RMK AO2 SLP191 T01890150 10217 20178 53015
KBUF 121054Z 00000KT 10SM FEW150 BKN250 18/15 A3008 RMK AO2 SLP184 T01830150
KBUF 120954Z 00000KT 10SM FEW150 18/14 A3007 RMK AO2 SLP180 T01780139
KBUF 120854Z 00000KT 10SM CLR 20/14 A3006 RMK AO2 SLP174 T02000139 51011
KBUF 120754Z 00000KT 10SM CLR 20/14 A3005 RMK AO2 SLP173 T02000139
KBUF 120654Z 18003KT 10SM CLR 21/14 A3004 RMK AO2 SLP167 T02060139
KBUF 120554Z 00000KT 10SM FEW080 22/14 A3002 RMK AO2 SLP163 T02170139 10256 20217 51016
KBUF 120454Z 33004KT 10SM FEW080 22/14 A3002 RMK AO2 SLP160 T02170144 402830217
KBUF 120354Z 32005KT 10SM FEW035 SCT045 SCT290 23/14 A2999 RMK AO2 SLP151 T02330144
KBUF 120254Z 30008KT 10SM FEW035 BKN049 BKN290 24/21 A2998 RMK AO2 SLP146 T02440206 52016
KBUF 120154Z 26008KT 10SM FEW023 BKN040 BKN290 25/21 A2997 RMK AO2 SLP142 T02500211
KBUF 120134Z 25007KT 10SM SCT019 BKN037 BKN290 25/21 A2996 RMK AO2 T02500206
KBUF 120110Z 26009KT 10SM SCT019 BKN028 BKN034 BKN290 26/20 A2995 RMK AO2 T02560200
KBUF 120054Z 26009KT 10SM SCT032 BKN045 BKN290 26/20 A2994 RMK AO2 SLP134 MDT CU DSNT NE T02560200
KBUF 112354Z 23010G18KT 10SM FEW022 FEW050 FEW290 25/21 A2993 RMK AO2 SLP129 MDT CU DSNT NW-NE T02500206 10283 20250 53006
KBUF 112254Z 23016G22KT 10SM FEW019 FEW045 FEW250 26/21 A2992 RMK AO2 SLP127 MDT CU DSNT NW-NE T02610206
KBUF 112154Z 24016G23KT 10SM FEW030 FEW055 FEW250 27/20 A2992 RMK AO2 SLP126 MDT CU DSNT NW-NE T02670200
KBUF 112054Z 24014G24KT 10SM FEW025 FEW055 FEW250 27/19 A2991 RMK AO2 PK WND 23027/2015 SLP123 MDT CU DSNT NW-NE T02720189 51007
KBUF 111954Z 23019G25KT 10SM FEW024 FEW055 FEW150 SCT230 28/19 A2991 RMK AO2 PK WND 25028/1907 SLP121 MDT CU DSNT NW-NE T02780194
KBUF 111857Z 24019G25KT 10SM SCT024 SCT055 BKN150 BKN230 27/19 A2990 RMK AO2 MDT CU DSNT SE AND NW-NE T02720189
KBUF 111854Z 23019G25KT 10SM SCT024 SCT029 27/19 A2990 RMK AO2 PK WND 24028/1755 SLP120 T02720189
KBUF 111754Z 23022G29KT 10SM SCT022 BKN150 BKN220 27/19 A2989 RMK AO2 PK WND 23031/1712 SLP117 T02670189 10278 20256 52005
KBUF 111654Z 24022G29KT 10SM SCT022 SCT041 BKN150 BKN200 BKN250 27/19 A2989 RMK AO2 PK WND 22029/1620 SLP114 T02670194
KBUF 111554Z 24019G29KT 10SM SCT019 BKN039 BKN150 BKN260 26/20 A2988 RMK AO2 PK WND 21029/1502 SLP114 T02610200
KBUF 111454Z 22019G30KT 10SM BKN025 BKN150 BKN260 27/20 A2988 RMK AO2 PK WND 21032/1421 SLP111 T02720200 53004
KBUF 111452Z 23018G30KT 10SM BKN025 BKN150 BKN260 27/20 A2987 RMK AO2 PK WND 21032/1421
KBUF 111430Z 22017G32KT 10SM SCT027 BKN150 BKN270 27/19 A2987 RMK AO2 PK WND 21032/1421 SCT V BKN T02720194
KBUF 111412Z 23018G29KT 10SM BKN029 BKN150 BKN270 27/19 A2987 RMK AO2 PK WND 22029/1407 T02670189
KBUF 111354Z 23015G24KT 10SM FEW029 BKN150 BKN270 27/19 A2986 RMK AO2 PK WND 21029/1334 SLP106 T02720189
KBUF 111254Z 22016G21KT 10SM FEW039 SCT160 SCT270 27/18 A2986 RMK AO2 SLP107 T02720183
KBUF 111154Z 19012KT 10SM FEW140 SCT250 26/18 A2986 RMK AO2 SLP104 T02610178 10261 20233 50004
KBUF 111054Z 19009KT 10SM FEW140 SCT250 24/17 A2986 RMK AO2 SLP106 T02440172 $
KBUF 110954Z 17005KT 10SM BKN250 23/17 A2986 RMK AO2 SLP105 T02330172 $
KBUF 110854Z 16005KT 10SM BKN250 24/18 A2984 RMK AO2 SLP100 T02390183 58009 $
KBUF 110754Z 15006KT 10SM BKN250 24/19 A2986 RMK AO2 SLP106 T02390189 $
KBUF 110654Z 14005KT 10SM BKN250 24/19 A2986 RMK AO2 SLP107 T02440194 $
KBUF 110554Z 18005KT 10SM BKN250 24/20 A2987 RMK AO2 SLP110 T02440200 10283 20244 56019 $
KBUF 110454Z 16006KT 10SM BKN250 24/20 A2989 RMK AO2 SLP115 T02440200 403170217 $
KBUF 110354Z 13007KT 10SM FEW150 BKN280 25/19 A2991 RMK AO2 SLP122 T02500194 $
KBUF 110254Z 14008KT 10SM FEW140 BKN270 26/18 A2993 RMK AO2 SLP129 T02610183 50003 $
KBUF 110154Z 17003KT 10SM FEW140 FEW270 27/18 A2993 RMK AO2 SLP129 T02720178 $
KBUF 110054Z 19004KT 10SM FEW140 FEW270 27/18 A2993 RMK AO2 SLP128 T02720183 $
KBUF 102354Z 23006KT 10SM FEW050 FEW170 FEW280 28/18 A2992 RMK AO2 SLP125 MDT CU DSNT SE T02830183 10317 20283 55015 $
KBUF 102254Z 21009KT 10SM FEW050 FEW280 29/19 A2991 RMK AO2 SLP123 MDT CU DSNT SE T02940189 $
KBUF 102154Z 22012KT 10SM FEW050 FEW210 FEW280 30/18 A2993 RMK AO2 SLP130 MDT CU DSNT SE T03000183 $
KBUF 102054Z 23012KT 10SM FEW050 FEW190 SCT280 31/18 A2996 RMK AO2 SLP140 MDT CU DSNT SE-SW T03060183 58018 $
KBUF 101954Z 23014KT 10SM FEW050 FEW190 BKN260 31/18 A2998 RMK AO2 SLP148 CB DSNT SE MDT CU DSNT S-SW T03110183 $
KBUF 101854Z 24015G21KT 10SM FEW045 FEW190 BKN260 31/18 A3000 RMK AO2 SLP154 CB DSNT N MOV NE MDT CU DSNT SE-SW T03110183 $